Time;durP1;ratioP1;P1;durP2;ratioP2;P2;SDS_P1;SDS_P2;PMS_P1;PMS_P2;Temp;Humidity;BMP_temperature;BMP_pressure;BME280_temperature;BME280_humidity;BME280_pressure;Samples;Min_cycle;Max_cycle;Signal;HPM_P1;HPM_P2
2022/06/20 00:00:30;;;;;;;;;;;;;;;23.94;35.92;100926.56;2083738;28;1140;-55
2022/06/20 00:01:31;;;;;;;;;;;;;;;23.94;36.01;100929.25;2075393;28;808;-55
2022/06/20 00:02:31;;;;;;;;;;;;;;;23.93;36.49;100924.78;2075492;28;871;-55
2022/06/20 00:03:35;;;;;;;;;;;;;;;23.92;36.66;100925.75;2084232;28;879;-55
2022/06/20 00:04:35;;;;;;;;;;;;;;;23.91;36.90;100921.28;2084311;28;838;-56
2022/06/20 00:05:36;;;;;;;;;;;;;;;23.90;36.54;100924.94;2083687;28;1130;-56
2022/06/20 00:06:38;;;;;;;;;;;;;;;23.90;36.14;100933.06;2084223;28;824;-55
2022/06/20 00:07:38;;;;;;;;;;;;;;;23.88;37.23;100927.69;2084178;28;796;-55
2022/06/20 00:08:38;;;;;;;;;;;;;;;23.87;37.08;100928.66;2084131;28;955;-55
2022/06/20 00:09:39;;;;;;;;;;;;;;;23.85;37.01;100930.53;2084163;28;781;-55
2022/06/20 00:10:41;;;;;;;;;;;;;;;23.83;36.37;100938.75;2083627;28;992;-56
2022/06/20 00:11:43;;;;;;;;;;;;;;;23.82;37.22;100936.97;2084157;28;993;-55
2022/06/20 00:12:45;;;;;;;;;;;;;;;23.83;36.92;100932.47;2084176;28;1009;-56
2022/06/20 00:13:46;;;;;;;;;;;;;;;23.81;37.23;100939.78;2084184;28;1941;-56
2022/06/20 00:14:47;;;;;;;;;;;;;;;23.80;36.93;100933.47;2084146;28;1000;-56
2022/06/20 00:15:49;;;;;;;;;;;;;;;23.80;36.62;100938.00;2083578;28;1045;-56
2022/06/20 00:16:49;;;;;;;;;;;;;;;23.78;36.68;100935.38;2084111;28;879;-55
2022/06/20 00:17:50;;;;;;;;;;;;;;;23.77;37.56;100939.00;2084163;28;851;-56
2022/06/20 00:18:50;;;;;;;;;;;;;;;23.76;36.60;100939.97;2084128;28;901;-56
2022/06/20 00:19:50;;;;;;;;;;;;;;;23.77;37.46;100944.44;2084121;28;981;-56
2022/06/20 00:20:51;;;;;;;;;;;;;;;23.76;36.79;100939.97;2083525;28;1039;-55
2022/06/20 00:21:51;;;;;;;;;;;;;;;23.76;37.57;100944.50;2084095;28;996;-56
2022/06/20 00:22:51;;;;;;;;;;;;;;;23.74;37.62;100944.56;2084082;28;918;-56
2022/06/20 00:23:51;;;;;;;;;;;;;;;23.75;36.85;100945.47;2084204;28;1045;-56
2022/06/20 00:24:52;;;;;;;;;;;;;;;23.76;37.78;100947.22;2084061;28;973;-56
2022/06/20 00:25:52;;;;;;;;;;;;;;;23.74;37.83;100944.56;2083482;28;1015;-55
2022/06/20 00:26:52;;;;;;;;;;;;;;;23.74;37.84;100939.16;2084016;28;911;-55
2022/06/20 00:27:53;;;;;;;;;;;;;;;23.74;37.77;100944.56;2083924;28;1074;-55
2022/06/20 00:28:54;;;;;;;;;;;;;;;23.73;37.34;100948.22;2083506;28;910;-55
2022/06/20 00:29:54;;;;;;;;;;;;;;;23.73;37.64;100950.91;2084024;28;991;-56
2022/06/20 00:30:55;;;;;;;;;;;;;;;23.72;37.90;100946.47;2083529;28;1090;-56
2022/06/20 00:31:55;;;;;;;;;;;;;;;23.71;38.04;100952.81;2084012;28;811;-55
2022/06/20 00:32:55;;;;;;;;;;;;;;;23.69;37.77;100952.91;2084031;28;835;-55
2022/06/20 00:33:56;;;;;;;;;;;;;;;23.69;38.03;100947.50;2083953;28;1910;-55
2022/06/20 00:34:56;;;;;;;;;;;;;;;23.70;37.82;100956.47;2083973;28;768;-55
2022/06/20 00:35:57;;;;;;;;;;;;;;;23.68;37.46;100951.13;2083439;28;1296;-55
2022/06/20 00:36:57;;;;;;;;;;;;;;;23.68;38.20;100948.44;2084012;28;784;-55
2022/06/20 00:37:58;;;;;;;;;;;;;;;23.69;37.46;100946.59;2083821;28;1200;-55
2022/06/20 00:38:58;;;;;;;;;;;;;;;23.68;37.82;100947.53;2083998;28;855;-55
2022/06/20 00:39:58;;;;;;;;;;;;;;;23.68;38.38;100956.56;2083947;28;804;-56
2022/06/20 00:41:01;;;;;;;;;;;;;;;23.67;37.71;100954.78;2083393;28;1157;-55
2022/06/20 00:42:01;;;;;;;;;;;;;;;23.67;37.68;100954.78;2083925;28;839;-55
2022/06/20 00:43:03;;;;;;;;;;;;;;;23.66;37.68;100955.75;2083924;28;1056;-56
2022/06/20 00:44:03;;;;;;;;;;;;;;;23.68;38.48;100950.25;2083814;28;1257;-55
2022/06/20 00:45:05;;;;;;;;;;;;;;;23.66;38.21;100952.13;2083908;28;974;-56
2022/06/20 00:46:09;;;;;;;;;;;;;;;23.65;37.76;100953.97;2083385;28;1039;-55
2022/06/20 00:47:12;;;;;;;;;;;;;;;23.66;38.35;100952.13;2084001;28;796;-56
2022/06/20 00:48:18;;;;;;;;;;;;;;;23.65;38.54;100955.78;2083905;28;879;-56
2022/06/20 00:49:24;;;;;;;;;;;;;;;23.63;38.63;100949.56;2083788;28;1073;-55
2022/06/20 00:50:29;;;;;;;;;;;;;;;23.64;38.30;100951.31;2083354;28;1128;-55
2022/06/20 00:51:34;;;;;;;;;;;;;;;23.64;38.75;100951.31;2083848;28;1089;-55
2022/06/20 00:52:40;;;;;;;;;;;;;;;23.64;38.06;100948.63;2083863;28;1001;-56
2022/06/20 00:53:47;;;;;;;;;;;;;;;23.63;38.81;100945.06;2083844;28;1894;-55
2022/06/20 00:54:52;;;;;;;;;;;;;;;23.63;38.13;100946.88;2083822;28;998;-56
2022/06/20 00:55:52;;;;;;;;;;;;;;;23.63;38.59;100947.75;2083319;28;1205;-56
2022/06/20 00:57:06;;;;;;;;;;;;;;;23.62;38.70;100945.09;2083782;28;792;-56
2022/06/20 00:58:30;;;;;;;;;;;;;;;23.63;38.26;100950.47;2083832;28;1013;-55
2022/06/20 00:59:31;;;;;;;;;;;;;;;23.62;38.61;100945.09;2083824;28;795;-55
2022/06/20 01:00:35;;;;;;;;;;;;;;;23.61;38.92;100944.25;2083269;28;1148;-55
2022/06/20 01:01:38;;;;;;;;;;;;;;;23.61;39.09;100943.34;2083756;28;1013;-56
2022/06/20 01:02:40;;;;;;;;;;;;;;;23.59;38.34;100939.84;2083866;28;934;-56
2022/06/20 01:03:47;;;;;;;;;;;;;;;23.60;38.43;100938.88;2083764;28;835;-55
2022/06/20 01:05:00;;;;;;;;;;;;;;;23.59;39.09;100940.72;2083824;28;831;-56
2022/06/20 01:06:12;;;;;;;;;;;;;;;23.60;38.29;100944.28;2083230;28;986;-56
2022/06/20 01:07:18;;;;;;;;;;;;;;;23.59;38.68;100947.94;2083773;28;886;-56
2022/06/20 01:08:21;;;;;;;;;;;;;;;23.59;39.31;100942.53;2083769;28;899;-55
2022/06/20 01:09:24;;;;;;;;;;;;;;;23.59;39.26;100942.53;2083708;28;864;-56
2022/06/20 01:10:25;;;;;;;;;;;;;;;23.59;39.24;100942.53;2083168;28;1139;-56
2022/06/20 01:11:27;;;;;;;;;;;;;;;23.59;38.74;100946.13;2083693;28;1002;-56
2022/06/20 01:12:31;;;;;;;;;;;;;;;23.59;38.65;100939.84;2083658;28;910;-55
2022/06/20 01:13:31;;;;;;;;;;;;;;;23.55;38.79;100941.81;2083571;28;1898;-56
2022/06/20 01:14:38;;;;;;;;;;;;;;;23.51;38.71;100943.78;2083781;28;780;-55
2022/06/20 01:15:40;;;;;;;;;;;;;;;23.48;39.59;100937.63;2083261;28;976;-55
2022/06/20 01:16:40;;;;;;;;;;;;;;;23.45;39.12;100937.75;2083602;28;990;-56
2022/06/20 01:17:41;;;;;;;;;;;;;;;23.43;39.81;100942.34;2083664;28;957;-55
2022/06/20 01:18:43;;;;;;;;;;;;;;;23.39;39.95;100944.31;2083622;28;820;-55
2022/06/20 01:19:48;;;;;;;;;;;;;;;23.37;39.95;100943.50;2083648;28;882;-56
2022/06/20 01:20:50;;;;;;;;;;;;;;;23.36;39.21;100944.47;2083130;28;998;-56
2022/06/20 01:21:50;;;;;;;;;;;;;;;23.36;39.08;100944.47;2083633;28;858;-56
2022/06/20 01:22:59;;;;;;;;;;;;;;;23.35;39.12;100942.69;2083600;28;993;-56
2022/06/20 01:24:16;;;;;;;;;;;;;;;23.34;39.69;100943.63;2083587;28;660;-56
2022/06/20 01:25:45;;;;;;;;;;;;;;;23.35;39.87;100948.09;2083071;28;1017;-55
2022/06/20 01:26:56;;;;;;;;;;;;;;;23.35;39.82;100943.56;2050202;29;1539;-56
2022/06/20 01:27:56;;;;;;;;;;;;;;;23.34;39.94;100938.22;2050140;29;1325;-55
2022/06/20 01:29:04;;;;;;;;;;;;;;;23.35;39.65;100943.56;2050280;29;1135;-55
2022/06/20 01:30:05;;;;;;;;;;;;;;;23.35;39.96;100937.28;2050293;29;824;-55
2022/06/20 01:31:07;;;;;;;;;;;;;;;23.36;39.60;100936.34;2049780;29;1112;-55
2022/06/20 01:32:10;;;;;;;;;;;;;;;23.36;40.04;100939.91;2050214;29;1081;-55
2022/06/20 01:33:11;;;;;;;;;;;;;;;23.36;39.38;100937.22;2050288;29;1010;-55
2022/06/20 01:34:14;;;;;;;;;;;;;;;23.37;39.44;100935.41;2050214;29;1914;-55
2022/06/20 01:37:56;;;;;;;;;;;;;;;23.36;40.23;100939.91;2050245;29;963;-56
2022/06/20 01:38:57;;;;;;;;;;;;;;;23.37;40.10;100940.81;2050282;29;1002;-55
2022/06/20 01:40:15;;;;;;;;;;;;;;;23.35;40.30;100931.88;2050214;28;998;-56
2022/06/20 01:42:35;;;;;;;;;;;;;;;23.35;39.45;100931.88;2050372;29;746;-55
2022/06/20 01:43:36;;;;;;;;;;;;;;;23.36;39.44;100929.09;2050241;29;844;-55
2022/06/20 01:44:38;;;;;;;;;;;;;;;23.37;40.27;100927.28;2050162;29;879;-55
2022/06/20 01:46:57;;;;;;;;;;;;;;;23.36;39.98;100931.81;2050175;29;716;-56
2022/06/20 01:48:05;;;;;;;;;;;;;;;23.35;40.29;100932.75;2050230;29;998;-56
2022/06/20 01:49:10;;;;;;;;;;;;;;;23.36;40.22;100933.66;2050177;29;1049;-55
2022/06/20 01:50:10;;;;;;;;;;;;;;;23.36;40.49;100930.94;2049826;29;1244;-55
2022/06/20 01:51:14;;;;;;;;;;;;;;;23.35;39.66;100931.88;2049840;29;1216;-55
2022/06/20 01:52:17;;;;;;;;;;;;;;;23.35;40.28;100932.75;2050171;29;868;-55
2022/06/20 01:53:19;;;;;;;;;;;;;;;23.36;39.68;100933.66;2050165;29;781;-56
2022/06/20 01:54:21;;;;;;;;;;;;;;;23.35;40.11;100927.34;2050067;29;1954;-55
2022/06/20 01:55:25;;;;;;;;;;;;;;;23.36;39.63;100930.94;2049597;29;1168;-56
2022/06/20 01:56:26;;;;;;;;;;;;;;;23.36;40.34;100928.25;2050139;29;832;-56
2022/06/20 01:57:29;;;;;;;;;;;;;;;23.34;40.45;100919.31;2050040;29;995;-56
2022/06/20 01:58:35;;;;;;;;;;;;;;;23.34;40.15;100924.72;2050118;29;896;-55
2022/06/20 01:59:37;;;;;;;;;;;;;;;23.34;40.47;100925.59;2050132;29;931;-56
2022/06/20 02:00:38;;;;;;;;;;;;;;;23.34;39.72;100928.28;2049478;29;1061;-55
2022/06/20 02:01:38;;;;;;;;;;;;;;;23.35;40.53;100926.47;2049999;29;1050;-55
2022/06/20 02:02:41;;;;;;;;;;;;;;;23.34;39.87;100922.03;2050027;29;1057;-56
2022/06/20 02:03:44;;;;;;;;;;;;;;;23.34;40.49;100919.31;2057761;28;947;-55
2022/06/20 02:04:44;;;;;;;;;;;;;;;23.33;40.33;100921.13;2075178;28;1001;-56
2022/06/20 02:05:46;;;;;;;;;;;;;;;23.33;39.81;100921.13;2074637;28;1203;-55
2022/06/20 02:06:47;;;;;;;;;;;;;;;23.33;39.91;100923.81;2075167;28;898;-56
2022/06/20 02:07:48;;;;;;;;;;;;;;;23.33;40.57;100923.81;2075140;28;831;-56
2022/06/20 02:08:51;;;;;;;;;;;;;;;23.34;40.45;100922.03;2075185;28;842;-56
2022/06/20 02:09:51;;;;;;;;;;;;;;;23.33;40.21;100929.22;2075166;28;847;-55
2022/06/20 02:10:55;;;;;;;;;;;;;;;23.33;40.07;100917.56;2074648;28;1142;-55
2022/06/20 02:11:55;;;;;;;;;;;;;;;23.32;40.73;100913.97;2075219;28;795;-56
2022/06/20 02:12:57;;;;;;;;;;;;;;;23.32;40.20;100923.91;2075294;28;838;-55
2022/06/20 02:14:16;;;;;;;;;;;;;;;23.31;39.80;100925.72;2074992;28;1890;-55
2022/06/20 02:15:20;;;;;;;;;;;;;;;23.32;40.78;100923.91;2074669;28;1124;-55
2022/06/20 02:16:22;;;;;;;;;;;;;;;23.31;40.62;100923.00;2075227;28;807;-56
2022/06/20 02:17:25;;;;;;;;;;;;;;;23.31;40.81;100927.56;2075078;28;1048;-55
2022/06/20 02:18:27;;;;;;;;;;;;;;;23.32;40.26;100921.22;2075079;28;994;-55
2022/06/20 02:19:31;;;;;;;;;;;;;;;23.31;40.72;100933.81;2075063;28;1076;-55
2022/06/20 02:20:38;;;;;;;;;;;;;;;23.30;40.51;100925.78;2074565;28;1154;-55
2022/06/20 02:21:38;;;;;;;;;;;;;;;23.28;40.79;100925.00;2075094;28;816;-55
2022/06/20 02:22:40;;;;;;;;;;;;;;;23.29;40.85;100926.75;2075030;28;780;-55
2022/06/20 02:23:42;;;;;;;;;;;;;;;23.29;40.90;100926.75;2075058;28;1009;-55
2022/06/20 02:24:46;;;;;;;;;;;;;;;23.29;40.91;100924.91;2074990;28;1057;-55
2022/06/20 02:25:48;;;;;;;;;;;;;;;23.29;40.52;100932.16;2074556;28;1008;-55
2022/06/20 02:26:50;;;;;;;;;;;;;;;23.29;40.16;100927.59;2075048;28;823;-55
2022/06/20 02:27:54;;;;;;;;;;;;;;;23.29;40.39;100933.00;2080479;28;1098;-55
2022/06/20 02:29:04;;;;;;;;;;;;;;;23.29;40.05;100933.00;2083157;28;1034;-55
2022/06/20 02:30:05;;;;;;;;;;;;;;;23.29;40.54;100934.84;2083219;28;863;-55
2022/06/20 02:31:07;;;;;;;;;;;;;;;23.29;40.17;100934.84;2082654;28;996;-55
2022/06/20 02:32:22;;;;;;;;;;;;;;;23.29;40.77;100932.16;2083102;28;985;-55
2022/06/20 02:33:26;;;;;;;;;;;;;;;23.28;40.85;100930.38;2083160;28;990;-55
2022/06/20 02:34:28;;;;;;;;;;;;;;;23.28;40.91;100933.09;2083158;28;903;-55
2022/06/20 02:35:29;;;;;;;;;;;;;;;23.27;40.51;100926.78;2082597;28;1181;-55
2022/06/20 02:36:31;;;;;;;;;;;;;;;23.27;40.32;100932.19;2083140;28;1049;-56
2022/06/20 02:37:34;;;;;;;;;;;;;;;23.26;40.44;100930.44;2083031;28;1271;-55
2022/06/20 02:38:34;;;;;;;;;;;;;;;23.27;41.12;100926.78;2083152;28;783;-55
2022/06/20 02:39:36;;;;;;;;;;;;;;;23.27;40.51;100928.63;2083092;28;969;-55
2022/06/20 02:40:41;;;;;;;;;;;;;;;23.27;40.65;100929.50;2082637;28;1008;-55
2022/06/20 02:41:43;;;;;;;;;;;;;;;23.25;40.42;100923.31;2083192;28;736;-55
2022/06/20 02:42:52;;;;;;;;;;;;;;;23.25;41.08;100920.59;2083110;28;1056;-55
2022/06/20 02:43:57;;;;;;;;;;;;;;;23.26;41.03;100926.88;2083155;28;784;-55
2022/06/20 02:44:58;;;;;;;;;;;;;;;23.26;41.10;100927.75;2083210;28;769;-55
2022/06/20 02:45:58;;;;;;;;;;;;;;;23.26;40.94;100932.28;2082590;28;985;-56
2022/06/20 02:47:01;;;;;;;;;;;;;;;23.26;40.99;100932.28;2083067;28;993;-55
2022/06/20 02:48:07;;;;;;;;;;;;;;;23.25;41.32;100931.41;2083108;28;788;-55
2022/06/20 02:49:09;;;;;;;;;;;;;;;23.24;41.13;100927.81;2083072;28;981;-55
2022/06/20 02:50:11;;;;;;;;;;;;;;;23.25;40.56;100928.72;2082849;28;1039;-54
2022/06/20 02:51:15;;;;;;;;;;;;;;;23.25;40.51;100926.00;2082550;28;1147;-55
2022/06/20 02:52:19;;;;;;;;;;;;;;;23.24;41.20;100927.81;2084060;28;752;-55
2022/06/20 02:53:25;;;;;;;;;;;;;;;23.23;41.50;100920.66;2084771;28;981;-56
2022/06/20 02:54:27;;;;;;;;;;;;;;;23.24;40.75;100933.22;2084850;28;1953;-56
2022/06/20 02:55:29;;;;;;;;;;;;;;;23.24;41.16;100925.13;2084306;28;1196;-55
2022/06/20 02:56:32;;;;;;;;;;;;;;;23.24;41.34;100926.97;2075909;28;1297;-55
2022/06/20 02:57:38;;;;;;;;;;;;;;;23.23;40.81;100920.66;2076291;28;990;-55
2022/06/20 02:58:39;;;;;;;;;;;;;;;23.24;40.83;100927.81;2084757;28;973;-55
2022/06/20 02:59:41;;;;;;;;;;;;;;;23.23;40.76;100923.34;2084718;28;835;-55
2022/06/20 03:00:44;;;;;;;;;;;;;;;23.22;41.16;100877.47;2084191;28;992;-56
2022/06/20 03:02:02;;;;;;;;;;;;;;;23.23;41.45;100874.72;2084691;28;911;-55
2022/06/20 03:03:09;;;;;;;;;;;;;;;23.23;40.97;100877.41;2084727;28;824;-55
2022/06/20 03:04:10;;;;;;;;;;;;;;;23.24;41.52;100881.00;2084665;28;906;-56
2022/06/20 03:05:12;;;;;;;;;;;;;;;23.24;41.31;100870.22;2084442;28;1048;-56
2022/06/20 03:06:18;;;;;;;;;;;;;;;23.23;40.79;100869.31;2084475;28;1168;-55
2022/06/20 03:07:22;;;;;;;;;;;;;;;23.24;41.59;100919.72;2084688;28;1001;-56
2022/06/20 03:08:23;;;;;;;;;;;;;;;23.23;41.55;100963.91;2084678;28;942;-55
2022/06/20 03:09:26;;;;;;;;;;;;;;;23.24;41.42;100948.56;2084674;28;792;-55
2022/06/20 03:10:32;;;;;;;;;;;;;;;23.23;40.95;100947.69;2084085;28;1049;-55
2022/06/20 03:11:35;;;;;;;;;;;;;;;23.22;41.16;100939.63;2075873;28;871;-55
2022/06/20 03:12:35;;;;;;;;;;;;;;;23.22;41.65;100947.72;2076251;28;823;-55
2022/06/20 03:13:37;;;;;;;;;;;;;;;23.21;40.64;100941.44;2084671;28;1945;-56
2022/06/20 03:14:40;;;;;;;;;;;;;;;23.22;41.14;100943.22;2084713;28;764;-55
2022/06/20 03:15:43;;;;;;;;;;;;;;;23.22;41.64;100945.03;2084208;28;980;-55
2022/06/20 03:16:43;;;;;;;;;;;;;;;23.21;41.60;100941.44;2084615;28;863;-55
2022/06/20 03:17:45;;;;;;;;;;;;;;;23.21;41.16;100952.25;2084594;28;994;-55
2022/06/20 03:18:50;;;;;;;;;;;;;;;23.21;41.43;100946.84;2084723;28;737;-55
2022/06/20 03:19:53;;;;;;;;;;;;;;;23.20;41.67;100945.06;2084541;28;918;-55
2022/06/20 03:20:54;;;;;;;;;;;;;;;23.21;41.02;100940.56;2084005;28;1205;-55
2022/06/20 03:21:57;;;;;;;;;;;;;;;23.20;41.87;100926.16;2084539;28;816;-55
2022/06/20 03:23:02;;;;;;;;;;;;;;;23.21;41.49;100918.94;2084511;28;994;-55
2022/06/20 03:24:03;;;;;;;;;;;;;;;23.20;41.86;100909.09;2084573;28;823;-55
2022/06/20 03:25:05;;;;;;;;;;;;;;;23.20;41.87;100912.66;2084452;28;1256;-55
2022/06/20 03:26:09;;;;;;;;;;;;;;;23.21;41.39;100919.81;2083990;28;1157;-55
2022/06/20 03:27:11;;;;;;;;;;;;;;;23.21;41.81;100914.41;2084505;28;1001;-55
2022/06/20 03:28:16;;;;;;;;;;;;;;;23.20;41.52;100918.06;2084550;28;895;-55
2022/06/20 03:29:17;;;;;;;;;;;;;;;23.20;41.84;100923.47;2084559;28;918;-56
2022/06/20 03:30:18;;;;;;;;;;;;;;;23.19;41.75;100915.44;2083993;28;1484;-56
2022/06/20 03:31:18;;;;;;;;;;;;;;;23.19;41.40;100910.91;2084506;28;740;-55
2022/06/20 03:32:18;;;;;;;;;;;;;;;23.19;41.79;100920.84;2084457;28;764;-56
2022/06/20 03:33:21;;;;;;;;;;;;;;;23.19;41.71;100916.28;2084480;28;847;-55
2022/06/20 03:34:24;;;;;;;;;;;;;;;23.18;41.01;100913.69;2084383;28;1960;-55
2022/06/20 03:35:26;;;;;;;;;;;;;;;23.19;41.87;100915.44;2083904;28;881;-55
2022/06/20 03:36:27;;;;;;;;;;;;;;;23.19;41.89;100912.72;2084397;28;832;-55
2022/06/20 03:37:27;;;;;;;;;;;;;;;23.20;41.18;100922.59;2084400;28;997;-56
2022/06/20 03:38:28;;;;;;;;;;;;;;;23.17;41.72;100915.47;2084388;28;978;-56
2022/06/20 03:39:28;;;;;;;;;;;;;;;23.18;41.85;100921.78;2084430;28;977;-55
2022/06/20 03:40:29;;;;;;;;;;;;;;;23.17;41.61;100920.88;2083993;28;1035;-55
2022/06/20 03:41:29;;;;;;;;;;;;;;;23.16;41.33;100919.13;2084331;28;986;-55
2022/06/20 03:42:29;;;;;;;;;;;;;;;23.17;41.61;100920.03;2084339;28;803;-55
2022/06/20 03:43:30;;;;;;;;;;;;;;;23.17;41.89;100918.19;2084394;28;974;-56
2022/06/20 03:44:33;;;;;;;;;;;;;;;23.17;41.44;100911.91;2084386;28;819;-55
2022/06/20 03:45:36;;;;;;;;;;;;;;;23.16;41.18;100912.88;2083991;28;1118;-55
2022/06/20 03:46:55;;;;;;;;;;;;;;;23.15;41.85;100906.56;2084402;28;776;-55
2022/06/20 03:48:02;;;;;;;;;;;;;;;23.16;41.73;100911.03;2084378;28;895;-55
2022/06/20 03:49:21;;;;;;;;;;;;;;;23.16;41.67;100910.16;2084358;28;924;-55
2022/06/20 03:50:25;;;;;;;;;;;;;;;23.16;41.34;100908.31;2083845;28;1067;-55
2022/06/20 03:51:28;;;;;;;;;;;;;;;23.16;42.04;100905.63;2084329;28;835;-55
2022/06/20 03:52:32;;;;;;;;;;;;;;;23.15;42.09;100897.59;2084390;28;873;-55
2022/06/20 03:53:36;;;;;;;;;;;;;;;23.15;41.63;100905.69;2084216;28;1886;-55
2022/06/20 03:54:50;;;;;;;;;;;;;;;23.15;42.04;100905.69;2084256;28;1041;-56
2022/06/20 03:55:58;;;;;;;;;;;;;;;23.15;42.04;100903.00;2083843;28;1121;-55
2022/06/20 03:57:07;;;;;;;;;;;;;;;23.14;42.21;100902.09;2084342;28;1013;-55
2022/06/20 03:58:13;;;;;;;;;;;;;;;23.14;42.04;100907.50;2084340;28;796;-55
2022/06/20 03:59:20;;;;;;;;;;;;;;;23.15;42.12;100895.75;2084304;28;1036;-55
2022/06/20 04:00:33;;;;;;;;;;;;;;;23.14;41.48;100874.22;2083784;28;1206;-55
2022/06/20 04:01:36;;;;;;;;;;;;;;;23.13;42.22;100905.75;2084487;28;783;-55
2022/06/20 04:02:55;;;;;;;;;;;;;;;24.10;39.61;100908.69;2084231;28;780;-55
2022/06/20 04:03:55;;;;;;;;;;;;;;;25.60;36.63;100862.34;2083319;28;816;-54
2022/06/20 04:05:22;;;;;;;;;;;;;;;26.30;35.63;100890.22;2084265;28;834;-54
2022/06/20 04:06:36;;;;;;;;;;;;;;;27.05;34.10;100904.00;2080055;28;1467;-53
2022/06/20 04:07:45;;;;;;;;;;;;;;;27.51;32.96;100902.16;2084208;28;1001;-53
2022/06/20 04:11:55;;;;;;;;;;;;;;;28.53;31.04;100917.47;2084385;28;653;-55
2022/06/20 04:13:00;;;;;;;;;;;;;;;28.79;30.65;100922.19;2084267;28;875;-55
2022/06/20 04:14:08;;;;;;;;;;;;;;;29.18;30.04;100923.16;2084084;28;1898;-55
2022/06/20 04:15:21;;;;;;;;;;;;;;;29.28;29.80;100905.16;2084094;28;981;-55
2022/06/20 04:16:21;;;;;;;;;;;;;;;29.49;29.33;100906.53;2084191;28;989;-55
2022/06/20 04:18:50;;;;;;;;;;;;;;;30.06;28.17;100899.75;2084197;28;669;-55
2022/06/20 04:19:52;;;;;;;;;;;;;;;30.24;28.25;100902.97;2084146;28;985;-55
2022/06/20 04:20:58;;;;;;;;;;;;;;;30.39;27.93;100894.63;2083591;28;1052;-55
2022/06/20 04:22:02;;;;;;;;;;;;;;;30.45;27.72;100916.03;2084119;28;949;-55
2022/06/20 04:23:07;;;;;;;;;;;;;;;30.38;27.94;100901.09;2075265;28;826;-55
2022/06/20 04:24:26;;;;;;;;;;;;;;;30.53;28.14;100899.94;2075792;28;978;-55
2022/06/20 04:25:50;;;;;;;;;;;;;;;31.44;26.29;100896.72;2083542;28;1055;-55
2022/06/20 04:27:07;;;;;;;;;;;;;;;31.93;25.70;100889.16;2084082;28;1002;-55
2022/06/20 04:28:26;;;;;;;;;;;;;;;32.28;25.24;100895.47;2084005;28;1319;-55
2022/06/20 04:29:31;;;;;;;;;;;;;;;32.42;24.63;100891.59;2084015;28;966;-55
2022/06/20 04:30:45;;;;;;;;;;;;;;;32.27;24.91;100894.63;2083571;28;995;-55
2022/06/20 04:31:58;;;;;;;;;;;;;;;32.15;25.00;100898.38;2084045;28;1049;-55
2022/06/20 04:33:03;;;;;;;;;;;;;;;32.53;24.23;100894.31;2084089;28;815;-55
2022/06/20 04:34:16;;;;;;;;;;;;;;;32.70;24.26;100892.03;2083967;28;1977;-55
2022/06/20 04:35:20;;;;;;;;;;;;;;;32.65;24.32;100896.03;2083524;28;1135;-55
2022/06/20 04:36:35;;;;;;;;;;;;;;;32.54;24.43;100887.84;2083982;28;1037;-55
2022/06/20 04:37:38;;;;;;;;;;;;;;;32.48;24.37;100899.31;2083915;28;1327;-55
2022/06/20 04:38:42;;;;;;;;;;;;;;;32.61;24.23;100894.56;2083953;28;1045;-55
2022/06/20 04:39:48;;;;;;;;;;;;;;;32.92;23.88;100899.31;2083924;28;1077;-55
2022/06/20 04:41:09;;;;;;;;;;;;;;;32.81;24.17;100901.06;2083447;28;1186;-55
2022/06/20 04:42:09;;;;;;;;;;;;;;;32.98;23.88;100898.78;2083992;28;791;-55
2022/06/20 04:43:09;;;;;;;;;;;;;;;33.21;23.32;100896.81;2083902;28;841;-55
2022/06/20 04:44:29;;;;;;;;;;;;;;;33.21;23.39;100896.81;2083890;28;998;-55
2022/06/20 04:45:45;;;;;;;;;;;;;;;33.22;23.35;100903.19;2082760;28;1211;-55
2022/06/20 04:46:56;;;;;;;;;;;;;;;33.62;22.58;100901.53;2083931;28;1053;-55
2022/06/20 04:48:02;;;;;;;;;;;;;;;33.58;23.19;100900.97;2083980;28;910;-55
2022/06/20 04:49:02;;;;;;;;;;;;;;;33.56;22.98;100902.97;2083905;28;1013;-55
2022/06/20 04:50:03;;;;;;;;;;;;;;;33.43;23.26;100905.94;2083896;28;874;-55
2022/06/20 04:51:08;;;;;;;;;;;;;;;33.26;23.25;100907.41;2074482;28;1173;-55
2022/06/20 04:52:12;;;;;;;;;;;;;;;33.59;23.04;100910.94;2075666;28;848;-55
2022/06/20 04:53:18;;;;;;;;;;;;;;;33.65;22.79;100904.03;2083841;28;918;-55
2022/06/20 04:54:20;;;;;;;;;;;;;;;33.45;23.17;100901.19;2083780;28;1951;-56
2022/06/20 04:55:24;;;;;;;;;;;;;;;33.74;22.94;100911.44;2083309;28;1256;-55
2022/06/20 04:56:27;;;;;;;;;;;;;;;33.95;22.59;100907.81;2083819;28;985;-55
2022/06/20 04:57:30;;;;;;;;;;;;;;;34.06;22.21;100910.47;2083778;28;973;-55
2022/06/20 04:58:35;;;;;;;;;;;;;;;33.92;22.41;100910.84;2083762;28;1056;-55
2022/06/20 04:59:36;;;;;;;;;;;;;;;33.93;22.77;100907.09;2083830;28;1046;-55
2022/06/20 05:00:43;;;;;;;;;;;;;;;33.97;22.53;100912.16;2083325;28;1271;-55
2022/06/20 05:01:44;;;;;;;;;;;;;;;33.81;22.52;100917.28;2083746;28;1076;-55
2022/06/20 05:02:45;;;;;;;;;;;;;;;33.89;22.55;100905.59;2074975;28;864;-55
2022/06/20 05:03:48;;;;;;;;;;;;;;;34.07;21.85;100919.56;2075035;28;910;-55
2022/06/20 05:04:50;;;;;;;;;;;;;;;34.19;22.36;100917.56;2083793;28;970;-55
2022/06/20 05:05:52;;;;;;;;;;;;;;;34.37;21.96;100921.38;2083248;28;1207;-55
2022/06/20 05:06:53;;;;;;;;;;;;;;;34.30;22.20;100920.22;2083731;28;1037;-55
2022/06/20 05:07:53;;;;;;;;;;;;;;;34.20;22.19;100909.19;2083769;28;795;-55
2022/06/20 05:09:12;;;;;;;;;;;;;;;34.28;21.97;100917.63;2083753;28;804;-56
2022/06/20 05:10:23;;;;;;;;;;;;;;;34.24;22.36;100904.28;2083420;28;1145;-55
2022/06/20 05:11:26;;;;;;;;;;;;;;;34.57;21.79;100903.06;2083714;28;997;-55
2022/06/20 05:12:29;;;;;;;;;;;;;;;34.49;21.69;100900.16;2083700;28;981;-55
2022/06/20 05:13:35;;;;;;;;;;;;;;;34.59;21.84;100901.03;2083677;28;804;-55
2022/06/20 05:14:43;;;;;;;;;;;;;;;34.63;21.89;100900.75;2083669;28;962;-55
2022/06/20 05:15:45;;;;;;;;;;;;;;;34.32;21.76;100901.69;2083247;28;1293;-55
2022/06/20 05:16:48;;;;;;;;;;;;;;;34.19;22.29;100899.22;2083664;28;820;-55
2022/06/20 05:17:50;;;;;;;;;;;;;;;34.32;22.16;100904.44;2083662;28;796;-55
2022/06/20 05:18:52;;;;;;;;;;;;;;;34.29;21.95;100899.22;2083678;28;789;-55
2022/06/20 05:19:55;;;;;;;;;;;;;;;34.25;22.15;100898.66;2083635;28;933;-55
2022/06/20 05:20:57;;;;;;;;;;;;;;;34.46;22.00;100902.34;2083166;28;1236;-55
2022/06/20 05:21:59;;;;;;;;;;;;;;;34.51;21.87;100897.28;2083724;28;790;-55
2022/06/20 05:23:18;;;;;;;;;;;;;;;34.51;21.74;100897.28;2083750;28;836;-55
2022/06/20 05:24:23;;;;;;;;;;;;;;;34.50;21.81;100896.41;2083572;28;1040;-56
2022/06/20 05:25:25;;;;;;;;;;;;;;;34.59;21.77;100900.19;2083068;28;992;-55
2022/06/20 05:26:31;;;;;;;;;;;;;;;34.57;21.56;100903.06;2083600;28;981;-55
2022/06/20 05:27:40;;;;;;;;;;;;;;;34.57;21.88;100896.72;2083419;28;1285;-55
2022/06/20 05:28:40;;;;;;;;;;;;;;;34.49;21.86;100900.16;2074730;28;671;-55
2022/06/20 05:29:43;;;;;;;;;;;;;;;34.56;21.84;100898.59;2074767;28;879;-56
2022/06/20 05:30:44;;;;;;;;;;;;;;;34.52;21.66;100899.03;2083020;28;1203;-55
2022/06/20 05:31:46;;;;;;;;;;;;;;;34.54;21.79;100897.00;2083570;28;804;-54
2022/06/20 05:32:58;;;;;;;;;;;;;;;34.58;21.70;100892.97;2083521;28;941;-55
2022/06/20 05:34:18;;;;;;;;;;;;;;;34.71;21.56;100898.16;2083475;28;1914;-56
2022/06/20 05:35:22;;;;;;;;;;;;;;;34.72;21.68;100895.28;2083032;28;992;-55
2022/06/20 05:36:25;;;;;;;;;;;;;;;34.54;21.83;100897.00;2083533;28;859;-55
2022/06/20 05:37:30;;;;;;;;;;;;;;;34.78;21.55;100898.44;2083490;28;998;-55
2022/06/20 05:38:41;;;;;;;;;;;;;;;34.59;21.61;100897.44;2083490;28;816;-55
2022/06/20 05:39:46;;;;;;;;;;;;;;;34.44;21.81;100892.34;2083461;28;1446;-55
2022/06/20 05:40:52;;;;;;;;;;;;;;;34.25;22.24;100900.53;2082971;28;1202;-55
2022/06/20 05:41:52;;;;;;;;;;;;;;;34.55;22.07;100896.84;2083492;28;898;-55
2022/06/20 05:42:52;;;;;;;;;;;;;;;34.39;21.88;100900.13;2083465;28;944;-55
2022/06/20 05:43:52;;;;;;;;;;;;;;;34.62;21.85;100894.41;2083460;28;1021;-55
2022/06/20 05:44:53;;;;;;;;;;;;;;;34.68;21.38;100893.84;2083437;28;934;-55
2022/06/20 05:45:58;;;;;;;;;;;;;;;34.90;21.33;100900.03;2082891;28;994;-55
2022/06/20 05:47:04;;;;;;;;;;;;;;;34.80;21.37;100902.81;2083468;28;883;-55